Time;durP1;ratioP1;P1;durP2;ratioP2;P2;SDS_P1;SDS_P2;PMS_P1;PMS_P2;Temp;Humidity;BMP_temperature;BMP_pressure;BME280_temperature;BME280_humidity;BME280_pressure;Samples;Min_cycle;Max_cycle;Signal;HPM_P1;HPM_P2
2022/04/20 00:01:21;;;;;;;2.33;0.60;;;;;;;10.73;67.74;102086.72;4878161;29;20069;-82
2022/04/20 00:03:46;;;;;;;3.50;0.57;;;;;;;10.76;67.18;102097.16;4892892;29;20037;-81
2022/04/20 00:06:11;;;;;;;2.15;0.70;;;;;;;10.77;67.09;102090.75;4875561;29;20033;-81
2022/04/20 00:08:37;;;;;;;2.53;0.65;;;;;;;10.45;67.65;102067.38;4875566;29;20042;-82
2022/04/20 00:11:02;;;;;;;1.95;0.70;;;;;;;10.48;68.02;102076.97;4901239;29;20092;-82
2022/04/20 00:13:28;;;;;;;1.00;0.60;;;;;;;10.39;67.64;102053.75;4912105;29;20110;-81
2022/04/20 00:15:54;;;;;;;0.90;0.60;;;;;;;10.31;68.30;102062.66;4914103;29;20447;-81
2022/04/20 00:18:19;;;;;;;1.20;0.60;;;;;;;10.53;68.64;102090.78;4913592;29;20028;-82
2022/04/20 00:20:44;;;;;;;1.05;0.77;;;;;;;10.44;68.42;102081.84;4910194;29;20036;-82
2022/04/20 00:23:10;;;;;;;2.33;0.77;;;;;;;10.42;68.62;102083.00;4913920;29;20074;-81
2022/04/20 00:25:35;;;;;;;3.22;0.80;;;;;;;10.40;68.55;102085.88;4904745;29;20029;-81
2022/04/20 00:28:00;;;;;;;1.42;0.70;;;;;;;10.33;68.82;102085.72;4900166;29;20044;-80
2022/04/20 00:30:26;;;;;;;2.25;0.90;;;;;;;10.30;69.23;102080.66;4895138;29;20120;-82
2022/04/20 00:32:51;;;;;;;1.42;0.90;;;;;;;10.20;69.70;102085.31;4904755;29;20407;-82
2022/04/20 00:35:17;;;;;;;3.70;0.80;;;;;;;10.14;69.60;102079.75;4912633;29;20648;-81
2022/04/20 00:37:43;;;;;;;1.33;0.60;;;;;;;10.04;70.30;102069.13;4908681;29;20029;-81
2022/04/20 00:40:09;;;;;;;1.52;0.70;;;;;;;10.04;69.83;102085.28;4927586;29;20033;-81
2022/04/20 00:42:38;;;;;;;1.90;1.05;;;;;;;10.02;70.56;102082.72;4908577;29;20168;-82
2022/04/20 00:45:05;;;;;;;1.90;0.70;;;;;;;9.95;70.50;102087.09;4894342;29;20017;-80
2022/04/20 00:47:35;;;;;;;2.67;0.70;;;;;;;9.83;71.19;102083.88;4908802;29;20036;-81
2022/04/20 00:50:01;;;;;;;2.05;0.70;;;;;;;9.84;70.92;102090.09;4895789;29;20025;-82
2022/04/20 00:52:26;;;;;;;1.63;0.70;;;;;;;9.84;71.28;102092.78;4912487;29;20087;-82
2022/04/20 00:54:51;;;;;;;2.38;0.77;;;;;;;9.62;72.00;102070.84;4908611;29;20060;-81
2022/04/20 00:57:17;;;;;;;0.80;0.63;;;;;;;9.59;72.05;102089.97;4897560;29;20036;-81
2022/04/20 00:59:43;;;;;;;1.08;0.60;;;;;;;9.15;73.02;102028.31;4898591;29;20017;-81
2022/04/20 01:02:09;;;;;;;1.38;0.70;;;;;;;9.52;72.59;102091.63;4879582;29;20049;-82
2022/04/20 01:04:34;;;;;;;2.70;0.77;;;;;;;9.51;73.17;102092.63;4875506;29;20045;-82
2022/04/20 01:07:09;;;;;;;1.38;0.80;;;;;;;9.42;73.51;102096.28;4889827;29;20021;-82
2022/04/20 01:09:34;;;;;;;3.38;0.90;;;;;;;9.36;73.24;102092.38;4892962;29;20029;-82
2022/04/20 01:12:00;;;;;;;1.90;0.80;;;;;;;9.34;74.01;102086.34;4891128;29;20064;-82
2022/04/20 01:14:25;;;;;;;1.38;0.80;;;;;;;9.31;74.17;102093.88;4904524;29;20047;-82
2022/04/20 01:16:50;;;;;;;2.42;0.82;;;;;;;9.27;74.33;102092.50;4908775;29;20084;-82
2022/04/20 01:19:16;;;;;;;2.30;1.00;;;;;;;9.21;74.50;102094.00;4892750;29;20061;-82
2022/04/20 01:21:41;;;;;;;1.20;0.73;;;;;;;9.02;75.09;102065.50;4889566;29;20066;-82
2022/04/20 01:24:06;;;;;;;3.05;0.90;;;;;;;9.05;75.37;102080.44;4871187;29;20108;-81
2022/04/20 01:26:32;;;;;;;1.27;0.85;;;;;;;9.09;75.59;102095.25;4887714;29;20044;-82
2022/04/20 01:29:01;;;;;;;1.73;0.95;;;;;;;9.06;75.26;102091.03;4887378;29;20048;-81
2022/04/20 01:31:29;;;;;;;3.13;0.85;;;;;;;9.04;75.48;102095.72;4888343;29;20475;-82
2022/04/20 01:33:54;;;;;;;3.40;1.08;;;;;;;9.01;75.98;102098.72;4895966;29;20012;-82
2022/04/20 01:36:19;;;;;;;1.92;0.90;;;;;;;8.99;76.42;102098.03;4876325;29;20032;-81
2022/04/20 01:38:45;;;;;;;1.48;0.70;;;;;;;8.87;76.42;102084.03;4887673;29;20033;-81
2022/04/20 01:41:10;;;;;;;1.92;0.82;;;;;;;8.91;76.90;102093.44;4871467;29;20444;-81
2022/04/20 01:43:35;;;;;;;3.03;0.88;;;;;;;8.89;77.05;102098.13;4856927;29;20495;-81
2022/04/20 01:46:01;;;;;;;1.08;0.80;;;;;;;8.86;77.01;102094.91;4869193;29;20061;-82
2022/04/20 01:48:26;;;;;;;1.30;0.80;;;;;;;8.83;77.63;102106.78;4870035;29;20413;-81
2022/04/20 01:53:35;;;;;;;3.00;0.90;;;;;;;8.72;78.05;102115.09;4889125;29;20104;-82
2022/04/20 01:56:03;;;;;;;2.85;0.90;;;;;;;8.71;77.99;102113.41;4873461;29;20029;-80
2022/04/20 01:58:28;;;;;;;4.25;0.80;;;;;;;8.65;78.29;102112.19;4899643;29;20426;-81
2022/04/20 02:00:54;;;;;;;1.85;1.00;;;;;;;8.59;78.48;102117.31;4903464;29;20096;-81
2022/04/20 02:03:19;;;;;;;1.83;0.93;;;;;;;8.47;79.09;102100.59;4906838;29;20032;-80
2022/04/20 02:05:44;;;;;;;3.08;0.93;;;;;;;8.16;78.65;102046.50;4903136;29;20100;-82
2022/04/20 02:08:10;;;;;;;2.38;0.93;;;;;;;8.51;79.73;102114.56;4913237;29;20036;-82
2022/04/20 02:10:36;;;;;;;1.75;0.90;;;;;;;8.46;79.63;102115.88;4896013;29;20036;-81
2022/04/20 02:13:02;;;;;;;2.08;1.15;;;;;;;8.40;79.65;102118.31;4909094;29;20028;-81
2022/04/20 02:15:28;;;;;;;1.92;1.00;;;;;;;8.34;80.49;102116.22;4903061;29;20427;-81
2022/04/20 02:17:53;;;;;;;1.10;0.80;;;;;;;8.27;80.44;102121.34;4906319;29;20041;-81
2022/04/20 02:20:19;;;;;;;1.38;0.90;;;;;;;8.21;80.76;102119.25;4903886;29;20051;-82
2022/04/20 02:22:44;;;;;;;2.53;1.00;;;;;;;8.17;80.51;102123.25;4907087;29;20470;-81
2022/04/20 02:25:10;;;;;;;3.95;0.90;;;;;;;8.09;81.07;102120.47;4905495;29;20103;-81
2022/04/20 02:27:35;;;;;;;1.17;0.82;;;;;;;8.07;81.36;102123.28;4902429;29;20092;-82
2022/04/20 02:30:01;;;;;;;2.22;1.10;;;;;;;7.86;81.48;102104.81;4892431;29;20055;-81
2022/04/20 02:32:26;;;;;;;2.20;0.82;;;;;;;7.96;82.08;102127.03;4886101;29;20029;-81
2022/04/20 02:34:52;;;;;;;1.75;0.80;;;;;;;7.83;82.32;102113.13;4890013;29;20120;-81
2022/04/20 02:37:17;;;;;;;1.02;0.80;;;;;;;7.87;83.03;102137.81;4888822;29;20063;-81
2022/04/20 02:39:44;;;;;;;1.58;0.80;;;;;;;7.83;82.57;102123.03;4869778;29;20037;-81
2022/04/20 02:42:11;;;;;;;3.15;0.98;;;;;;;7.91;82.82;102144.53;4890478;29;20036;-81
2022/04/20 02:44:39;;;;;;;1.52;0.88;;;;;;;7.60;82.96;102099.28;4913011;29;20063;-82
2022/04/20 02:47:05;;;;;;;1.38;0.90;;;;;;;7.77;83.25;102140.53;4904245;29;20063;-81
2022/04/20 02:49:30;;;;;;;1.48;0.90;;;;;;;7.85;82.92;102151.38;4895212;29;20021;-81
2022/04/20 02:51:55;;;;;;;3.58;1.00;;;;;;;7.79;83.37;102146.59;4882350;29;20534;-81
2022/04/20 02:54:21;;;;;;;2.80;0.98;;;;;;;7.71;83.51;102147.31;4851920;29;20068;-81
2022/04/20 02:56:47;;;;;;;3.75;1.13;;;;;;;7.79;84.04;102157.31;4884344;29;20113;-81
2022/04/20 02:59:12;;;;;;;2.70;1.00;;;;;;;7.79;84.45;102157.31;4889573;29;20029;-81
2022/04/20 03:01:38;;;;;;;1.50;1.00;;;;;;;7.68;84.34;102152.13;4903767;29;20036;-81
2022/04/20 03:04:04;;;;;;;3.95;1.27;;;;;;;7.78;84.86;102171.69;4916934;29;20538;-80
2022/04/20 03:06:31;;;;;;;2.88;0.90;;;;;;;7.77;84.43;102168.16;4885803;29;20033;-81
2022/04/20 03:08:56;;;;;;;2.58;1.20;;;;;;;7.76;84.42;102171.00;4887267;29;20033;-80
2022/04/20 03:11:22;;;;;;;1.00;0.90;;;;;;;7.73;84.43;102174.81;4883235;29;20067;-82
2022/04/20 03:13:48;;;;;;;1.27;0.95;;;;;;;7.61;84.10;102162.56;4885352;29;20029;-81
2022/04/20 03:16:15;;;;;;;1.75;0.90;;;;;;;7.21;84.39;102103.94;4870000;29;20037;-82
2022/04/20 03:18:41;;;;;;;2.00;1.10;;;;;;;7.58;84.62;102175.41;4888955;29;20056;-81
2022/04/20 03:21:06;;;;;;;1.83;1.00;;;;;;;7.47;84.92;102169.25;4894869;29;20051;-80
2022/04/20 03:23:32;;;;;;;2.05;1.00;;;;;;;7.43;nan;102167.03;4885453;29;20033;-82
2022/04/20 03:25:58;;;;;;;3.25;1.00;;;;;;;7.29;85.44;102162.97;4900921;29;20037;-81
2022/04/20 03:28:23;;;;;;;3.13;0.98;;;;;;;7.20;85.72;102164.66;4876244;29;404684;-81
2022/04/20 03:30:49;;;;;;;1.20;0.85;;;;;;;7.15;85.74;102176.78;4901604;29;20033;-81
2022/04/20 03:33:16;;;;;;;1.40;0.98;;;;;;;7.12;85.93;102177.06;4902829;29;20052;-81
2022/04/20 03:35:43;;;;;;;3.05;1.08;;;;;;;7.04;86.05;102175.94;4893586;29;20100;-82
2022/04/20 03:38:09;;;;;;;2.45;1.15;;;;;;;6.79;86.73;102164.00;4884748;29;20064;-81
2022/04/20 03:40:35;;;;;;;3.83;1.38;;;;;;;6.91;87.81;102180.75;4883151;29;20033;-81
2022/04/20 03:43:01;;;;;;;1.77;1.13;;;;;;;6.70;88.44;102145.28;4884471;29;20114;-81
2022/04/20 03:45:26;;;;;;;2.35;1.02;;;;;;;6.88;88.71;102169.50;4878060;29;20072;-81
2022/04/20 03:47:52;;;;;;;3.03;1.13;;;;;;;6.99;88.13;102185.41;4907739;29;20036;-81
2022/04/20 03:50:18;;;;;;;6.95;1.40;;;;;;;7.03;88.47;102189.50;4906103;29;20059;-81
2022/04/20 03:52:43;;;;;;;2.30;1.20;;;;;;;6.92;88.23;102158.38;4906526;29;20026;-82
2022/04/20 03:55:09;;;;;;;4.00;1.50;;;;;;;6.97;88.18;102174.84;4876351;29;20040;-80
2022/04/20 03:57:34;;;;;;;5.10;1.95;;;;;;;6.92;88.66;102181.59;4872397;29;20494;-81
2022/04/20 04:00:00;;;;;;;4.47;2.08;;;;;;;6.96;90.77;102183.88;4892262;29;20037;-82
2022/04/20 04:02:25;;;;;;;4.07;1.80;;;;;;;7.02;89.99;102177.09;4892089;29;20037;-81
2022/04/20 04:04:50;;;;;;;3.28;1.80;;;;;;;6.98;89.96;102152.44;4897338;29;20033;-82
2022/04/20 04:07:16;;;;;;;3.35;1.60;;;;;;;7.09;89.44;102172.03;4899777;29;20041;-80
2022/04/20 04:09:42;;;;;;;3.78;1.00;;;;;;;7.19;90.33;102183.56;4894135;29;20037;-82
2022/04/20 04:12:08;;;;;;;3.55;1.33;;;;;;;7.66;88.35;102191.63;4889128;29;20029;-81
2022/04/20 04:14:40;;;;;;;1.67;1.20;;;;;;;7.90;85.77;102154.44;4888266;29;20037;-81
2022/04/20 04:17:06;;;;;;;3.05;1.27;;;;;;;8.61;83.22;102179.72;4888446;29;20047;-81
2022/04/20 04:19:34;;;;;;;2.05;1.42;;;;;;;9.02;80.59;102185.47;4887664;29;20436;-82
2022/04/20 04:22:01;;;;;;;2.33;1.00;;;;;;;9.44;78.10;102200.88;4893521;29;20036;-82
2022/04/20 04:24:35;;;;;;;2.70;1.00;;;;;;;9.91;76.11;102200.50;4895398;29;20084;-80
2022/04/20 04:27:03;;;;;;;1.85;1.10;;;;;;;10.39;73.34;102201.72;4892619;29;20028;-82
2022/04/20 04:29:29;;;;;;;2.95;1.00;;;;;;;10.68;72.07;102195.91;4894844;29;20401;-82
2022/04/20 04:31:55;;;;;;;1.27;1.10;;;;;;;10.78;70.86;102186.66;4895396;29;20100;-83
2022/04/20 04:34:20;;;;;;;3.38;1.15;;;;;;;11.14;70.00;102209.75;4904715;29;20040;-84
2022/04/20 04:36:46;;;;;;;3.88;1.08;;;;;;;11.05;69.62;102207.06;4972795;23;21041;-83
2022/04/20 04:39:18;;;;;;;1.77;1.10;;;;;;;11.07;69.24;102201.50;4913141;29;20045;-82
2022/04/20 04:41:46;;;;;;;1.40;1.30;;;;;;;11.33;68.50;102204.03;4889808;29;20037;-82
2022/04/20 04:44:11;;;;;;;2.72;1.20;;;;;;;11.65;66.55;102196.88;4903636;29;20096;-81
2022/04/20 04:49:21;;;;;;;3.97;1.67;;;;;;;11.99;65.44;102192.13;4884025;29;20043;-80
2022/04/20 04:51:46;;;;;;;4.03;1.73;;;;;;;11.86;65.17;102205.31;4872792;29;20036;-81
2022/04/20 04:54:11;;;;;;;5.88;2.00;;;;;;;11.74;65.62;102199.41;4885053;29;20075;-81
2022/04/20 04:56:37;;;;;;;5.60;2.40;;;;;;;12.02;64.17;102184.66;4889237;29;20035;-81
2022/04/20 04:59:02;;;;;;;5.38;2.40;;;;;;;12.61;62.35;102209.34;4871428;29;20029;-81
2022/04/20 05:01:28;;;;;;;5.82;2.42;;;;;;;12.62;61.37;102184.88;4892208;29;20064;-81
2022/04/20 05:03:56;;;;;;;8.60;2.40;;;;;;;12.68;61.35;102194.97;4893947;29;20020;-82
2022/04/20 05:06:21;;;;;;;6.75;2.55;;;;;;;12.80;60.57;102189.13;4890428;29;20040;-82
2022/04/20 05:08:47;;;;;;;5.72;2.03;;;;;;;13.01;60.09;102202.81;4905390;29;20048;-81
2022/04/20 05:11:12;;;;;;;4.15;1.60;;;;;;;13.21;59.62;102195.06;4891781;29;20037;-82
2022/04/20 05:13:37;;;;;;;7.05;1.70;;;;;;;13.63;58.44;102199.06;4902137;29;20033;-82
2022/04/20 05:16:03;;;;;;;1.95;1.10;;;;;;;13.72;57.56;102194.41;4889759;29;20073;-82
2022/04/20 05:18:28;;;;;;;2.83;1.13;;;;;;;13.62;57.66;102200.09;4887588;29;20040;-82
2022/04/20 05:20:54;;;;;;;4.57;1.20;;;;;;;13.43;57.88;102208.75;4895071;29;20041;-82
2022/04/20 05:23:19;;;;;;;3.05;1.27;;;;;;;12.90;59.51;102200.53;4896944;29;20033;-81
2022/04/20 05:25:45;;;;;;;6.30;1.27;;;;;;;11.37;64.81;102186.50;4893098;29;20025;-81
2022/04/20 05:28:10;;;;;;;2.28;1.30;;;;;;;11.11;67.69;102210.94;4904058;29;20033;-82
2022/04/20 05:30:36;;;;;;;3.17;0.90;;;;;;;10.82;69.36;102219.50;4883797;29;20033;-81
2022/04/20 05:33:03;;;;;;;4.45;1.10;;;;;;;10.57;71.12;102213.22;4870513;29;20060;-81
2022/04/20 05:43:35;;;;;;;2.00;1.10;;;;;;;10.08;74.80;102194.19;4900661;29;20047;-81
2022/04/20 05:46:00;;;;;;;3.83;1.10;;;;;;;10.31;75.40;102213.31;4901001;29;20032;-80
2022/04/20 05:48:26;;;;;;;2.58;1.20;;;;;;;10.24;75.69;102213.09;4890998;29;20035;-83
2022/04/20 05:50:51;;;;;;;4.00;1.10;;;;;;;10.02;75.50;102174.16;4903673;29;20036;-80
2022/04/20 05:53:16;;;;;;;3.28;1.40;;;;;;;10.21;76.01;102199.13;4909137;29;20147;-81
2022/04/20 05:55:42;;;;;;;3.17;1.15;;;;;;;10.33;75.88;102216.66;4913441;29;20065;-84
2022/04/20 05:58:07;;;;;;;3.83;1.10;;;;;;;10.42;75.09;102212.16;4902532;29;20040;-83
2022/04/20 06:00:33;;;;;;;1.50;0.95;;;;;;;10.45;75.03;102207.31;4910859;29;20031;-82
2022/04/20 06:02:58;;;;;;;1.60;1.10;;;;;;;10.41;74.49;102195.19;4911388;29;20094;-84
2022/04/20 06:05:25;;;;;;;1.88;1.20;;;;;;;9.94;75.15;102146.41;5121454;23;20069;-83
2022/04/20 06:07:50;;;;;;;4.38;1.30;;;;;;;9.07;76.06;102028.28;4930775;29;20059;-82
2022/04/20 06:10:16;;;;;;;3.08;1.00;;;;;;;9.24;75.50;102053.38;4917241;29;20024;-82
2022/04/20 06:12:42;;;;;;;1.75;1.20;;;;;;;9.07;75.54;101993.38;4918918;29;20060;-83
2022/04/20 06:15:08;;;;;;;2.85;1.15;;;;;;;8.98;74.96;101980.06;5161101;23;20019;-78
2022/04/20 06:17:34;;;;;;;3.22;1.10;;;;;;;9.36;74.93;102035.13;4902487;29;20021;-84
2022/04/20 06:20:00;;;;;;;2.85;1.00;;;;;;;10.57;74.76;102197.91;4898282;29;20043;-82
2022/04/20 06:22:25;;;;;;;1.98;1.00;;;;;;;10.51;74.40;102174.34;4886963;29;20579;-81
2022/04/20 06:24:50;;;;;;;3.88;1.10;;;;;;;10.67;74.76;102203.16;4897468;29;20046;-81
2022/04/20 06:27:16;;;;;;;2.42;1.08;;;;;;;10.55;75.42;102196.41;4883752;29;20035;-82
2022/04/20 06:29:42;;;;;;;2.45;1.10;;;;;;;10.51;75.00;102171.66;4880631;29;20065;-81
2022/04/20 06:32:07;;;;;;;2.63;1.30;;;;;;;10.67;75.14;102208.53;4910180;29;20097;-82
2022/04/20 06:34:33;;;;;;;2.30;1.15;;;;;;;10.81;75.07;102209.75;4879294;29;20029;-81
2022/04/20 06:36:59;;;;;;;1.75;1.30;;;;;;;10.93;74.34;102194.13;4894527;29;20033;-80
2022/04/20 06:39:25;;;;;;;2.35;1.08;;;;;;;10.90;74.28;102197.13;4880656;29;20486;-80
2022/04/20 06:41:51;;;;;;;2.05;1.08;;;;;;;11.05;73.85;102196.28;4862022;29;20052;-79
2022/04/20 06:44:20;;;;;;;2.25;1.00;;;;;;;11.20;73.42;102184.84;4878999;29;20032;-81
2022/04/20 06:46:45;;;;;;;3.70;0.98;;;;;;;11.37;72.58;102201.84;4876553;29;20044;-80
2022/04/20 06:49:11;;;;;;;4.45;1.15;;;;;;;11.60;71.19;102183.09;4862885;29;20040;-80
2022/04/20 06:59:55;;;;;;;2.78;0.75;;;;;;;11.76;67.20;102178.50;4883732;29;20053;-78
2022/04/20 07:02:21;;;;;;;6.18;1.20;;;;;;;11.88;65.71;102189.78;4881535;29;20399;-79
2022/04/20 07:04:46;;;;;;;3.50;1.05;;;;;;;11.75;64.43;102184.91;4883143;29;20033;-78
2022/04/20 07:07:12;;;;;;;5.60;1.17;;;;;;;11.75;65.38;102187.63;4889341;29;20037;-81
2022/04/20 07:09:37;;;;;;;4.18;1.10;;;;;;;11.89;64.70;102178.00;4884049;29;20447;-78
2022/04/20 07:12:03;;;;;;;4.72;1.20;;;;;;;11.97;63.90;102175.25;4880698;29;20036;-79
2022/04/20 07:14:28;;;;;;;6.55;1.50;;;;;;;12.03;63.85;102180.97;4880895;29;20429;-79
2022/04/20 07:16:53;;;;;;;11.68;1.40;;;;;;;12.32;62.96;102183.88;4876430;29;20072;-79
2022/04/20 07:19:19;;;;;;;1.73;1.00;;;;;;;12.31;62.67;102184.03;4884114;29;20044;-80
2022/04/20 07:21:44;;;;;;;3.42;0.90;;;;;;;12.13;62.32;102190.53;4887693;29;20061;-80
2022/04/20 07:24:09;;;;;;;3.53;1.02;;;;;;;12.08;62.74;102165.91;4884014;29;20045;-80
2022/04/20 07:26:35;;;;;;;4.30;0.90;;;;;;;12.37;62.44;102188.72;4922040;23;20072;-81
2022/04/20 07:29:00;;;;;;;1.85;0.90;;;;;;;11.39;61.67;101998.53;4925338;29;20027;-84
2022/04/20 07:31:26;;;;;;;1.88;0.80;;;;;;;11.05;61.46;101966.50;4925770;29;20008;-84
2022/04/20 07:33:51;;;;;;;3.33;0.88;;;;;;;11.24;61.69;101997.56;4920597;29;20004;-82
2022/04/20 07:36:17;;;;;;;3.15;0.93;;;;;;;11.52;61.15;102014.13;4926202;29;20012;-84
2022/04/20 07:56:49;;;;;;;3.15;0.80;;;;;;;12.94;58.45;102166.72;5266840;23;20064;-80
2022/04/20 07:59:14;;;;;;;1.60;0.63;;;;;;;13.01;58.56;102183.88;4894688;29;20454;-79
2022/04/20 08:01:40;;;;;;;3.25;0.90;;;;;;;12.89;58.62;102171.84;4894114;29;20048;-79
2022/04/20 08:04:05;;;;;;;3.17;1.00;;;;;;;12.84;58.83;102139.13;4910231;29;20048;-79
2022/04/20 08:06:31;;;;;;;2.88;0.70;;;;;;;13.01;57.73;102175.78;4896254;29;20036;-79
2022/04/20 08:08:56;;;;;;;2.45;0.85;;;;;;;13.20;57.90;102169.03;4878614;29;20373;-80
2022/04/20 08:11:22;;;;;;;3.85;0.90;;;;;;;13.19;57.96;102166.53;4896738;29;20033;-78
2022/04/20 08:16:31;;;;;;;2.38;0.80;;;;;;;13.14;57.79;102159.81;4897501;29;20026;-80
2022/04/20 08:18:56;;;;;;;2.33;1.00;;;;;;;13.24;57.53;102169.50;4899178;29;20112;-80
2022/04/20 08:21:22;;;;;;;1.92;1.13;;;;;;;13.15;56.93;102142.56;4895889;29;20028;-81
2022/04/20 08:23:47;;;;;;;3.40;0.90;;;;;;;13.45;57.15;102153.47;4899655;29;20050;-80
2022/04/20 08:26:13;;;;;;;5.88;0.90;;;;;;;13.68;56.11;102174.19;4897023;29;20379;-79
2022/04/20 08:28:39;;;;;;;3.58;0.88;;;;;;;13.57;56.87;102175.47;4892894;29;20147;-79
2022/04/20 08:31:04;;;;;;;3.78;1.20;;;;;;;13.63;55.96;102153.09;4898796;29;20037;-80
2022/04/20 08:33:31;;;;;;;2.25;1.10;;;;;;;13.45;56.16;102153.47;4903707;29;20084;-81
2022/04/20 08:35:56;;;;;;;2.67;1.05;;;;;;;13.60;55.80;102159.69;4902126;29;20036;-80
2022/04/20 08:38:22;;;;;;;3.38;1.00;;;;;;;13.91;55.58;102166.81;4897356;29;20133;-80
2022/04/20 08:40:50;;;;;;;2.35;0.90;;;;;;;13.95;55.04;102151.03;4894925;29;20028;-80
2022/04/20 08:43:15;;;;;;;4.32;1.00;;;;;;;13.84;55.86;102165.84;4901168;29;20091;-80
2022/04/20 08:45:42;;;;;;;4.47;0.80;;;;;;;14.22;55.35;102163.84;4898605;29;20057;-79
2022/04/20 08:48:09;;;;;;;1.83;1.00;;;;;;;14.01;54.70;102150.28;4895164;29;20032;-80
2022/04/20 08:50:35;;;;;;;6.35;0.93;;;;;;;14.03;55.83;102157.16;4879745;29;20359;-81
2022/04/20 08:53:02;;;;;;;4.88;1.10;;;;;;;13.92;55.22;102140.59;4893710;29;20033;-81
2022/04/20 08:55:28;;;;;;;4.30;0.80;;;;;;;14.18;55.41;102143.63;4894597;29;20047;-80
2022/04/20 08:57:54;;;;;;;2.70;0.75;;;;;;;14.18;54.56;102131.97;4898556;29;20032;-80
2022/04/20 09:00:23;;;;;;;2.45;0.75;;;;;;;13.95;54.79;102108.56;4900759;29;20029;-81
2022/04/20 09:02:52;;;;;;;1.75;0.80;;;;;;;14.29;54.42;102151.22;4906692;29;20024;-80
2022/04/20 09:05:17;;;;;;;2.47;1.25;;;;;;;14.52;54.90;102148.38;4896601;29;20045;-81
2022/04/20 09:07:43;;;;;;;1.45;0.75;;;;;;;14.65;53.68;102155.81;4883081;29;20069;-80
2022/04/20 09:10:08;;;;;;;1.08;0.75;;;;;;;14.63;54.24;102154.34;4882096;29;20024;-81
2022/04/20 09:12:41;;;;;;;4.65;0.70;;;;;;;14.45;52.98;102147.47;4897892;29;20033;-80
2022/04/20 09:15:07;;;;;;;1.60;0.80;;;;;;;14.54;53.51;102151.75;4895523;29;20065;-80
2022/04/20 09:17:41;;;;;;;3.03;1.27;;;;;;;14.47;53.60;102131.88;4895759;29;20433;-80
2022/04/20 09:20:09;;;;;;;0.88;0.60;;;;;;;14.52;53.24;102147.56;4899381;29;20424;-81
2022/04/20 09:22:35;;;;;;;1.33;0.70;;;;;;;14.38;53.36;102127.59;4900877;29;20038;-81
2022/04/20 09:25:07;;;;;;;0.70;0.60;;;;;;;14.50;53.01;102150.47;4893470;29;20404;-79
2022/04/20 09:27:36;;;;;;;2.00;0.73;;;;;;;14.51;53.21;102141.31;4895398;29;20036;-80
2022/04/20 09:30:04;;;;;;;1.80;0.90;;;;;;;14.59;53.31;102121.38;4895578;29;20024;-80
2022/04/20 09:32:41;;;;;;;4.85;0.77;;;;;;;14.89;52.48;102143.75;4896464;29;20419;-80
2022/04/20 09:35:09;;;;;;;4.72;0.80;;;;;;;14.81;53.35;102130.34;4896898;29;20029;-79
2022/04/20 09:37:36;;;;;;;2.38;0.80;;;;;;;15.01;52.96;102128.63;4894940;29;20148;-81
2022/04/20 09:40:11;;;;;;;3.15;0.80;;;;;;;15.21;52.46;102117.94;4896484;29;20057;-81
2022/04/20 09:42:36;;;;;;;;;;;;;;;14.81;52.21;102119.50;4895836;29;20067;-81
2022/04/20 09:45:06;;;;;;;3.92;0.85;;;;;;;14.87;52.83;102115.19;4898272;29;20012;-81
2022/04/20 09:50:27;;;;;;;3.88;0.60;;;;;;;15.10;52.30;102121.22;4889730;29;20071;-80
2022/04/20 09:52:55;;;;;;;2.42;0.80;;;;;;;15.17;51.78;102119.38;4907513;29;20414;-80
2022/04/20 09:55:38;;;;;;;2.28;0.75;;;;;;;14.99;51.86;102106.28;4917110;29;20028;-81
2022/04/20 09:58:20;;;;;;;3.10;0.80;;;;;;;15.13;52.03;102111.81;4903269;29;20136;-81
2022/04/20 10:00:51;;;;;;;1.70;0.70;;;;;;;15.20;51.49;102105.44;4901373;29;20060;-81
2022/04/20 10:03:26;;;;;;;2.70;0.90;;;;;;;15.21;51.65;102096.25;4910438;29;20033;-81
2022/04/20 10:05:52;;;;;;;1.35;0.70;;;;;;;15.16;51.88;102114.13;4901833;29;20036;-80
2022/04/20 10:08:19;;;;;;;1.40;0.80;;;;;;;15.25;51.06;102102.09;4910196;29;20005;-82
2022/04/20 10:10:44;;;;;;;2.60;0.77;;;;;;;15.17;51.00;102091.44;4908428;29;20496;-82
2022/04/20 10:13:10;;;;;;;1.58;0.73;;;;;;;15.41;51.11;102092.81;4913743;29;20047;-82
2022/04/20 10:18:25;;;;;;;1.40;0.90;;;;;;;15.65;50.22;102084.19;4917420;29;20071;-83
2022/04/20 10:20:57;;;;;;;2.75;0.98;;;;;;;15.81;49.70;102069.47;4912875;29;20028;-82
2022/04/20 10:23:23;;;;;;;1.30;0.65;;;;;;;16.15;49.42;102064.97;4907505;29;20101;-80
2022/04/20 10:25:51;;;;;;;3.03;0.80;;;;;;;16.19;49.13;102063.50;4908649;29;20093;-86
2022/04/20 10:28:50;;;;;;;1.52;0.90;;;;;;;16.21;49.84;102072.31;4908669;29;20107;-82
2022/04/20 10:31:20;;;;;;;3.33;0.85;;;;;;;16.18;48.95;102057.25;4907981;29;20028;-81
2022/04/20 10:33:46;;;;;;;2.22;0.70;;;;;;;16.08;48.70;102042.41;4910340;29;20012;-82
2022/04/20 10:36:27;;;;;;;1.38;0.70;;;;;;;16.14;49.44;102079.59;4911383;29;20036;-82
2022/04/20 10:39:22;;;;;;;1.35;0.80;;;;;;;15.40;50.23;101874.19;5643387;23;20025;-81
2022/04/20 10:42:11;;;;;;;2.03;0.80;;;;;;;16.51;48.89;102050.19;4919292;29;20037;-81
2022/04/20 10:44:55;;;;;;;1.27;0.70;;;;;;;16.58;49.25;102062.72;4920929;29;20021;-82
2022/04/20 10:47:30;;;;;;;3.17;0.80;;;;;;;16.61;49.52;102050.63;4925148;29;20008;-84
2022/04/20 10:50:11;;;;;;;2.50;0.70;;;;;;;16.53;47.66;102053.56;4918110;29;20618;-82
2022/04/20 10:57:48;;;;;;;4.60;0.90;;;;;;;15.95;47.79;101900.16;5726551;23;20041;-85
2022/04/20 11:05:25;;;;;;;3.20;0.75;;;;;;;16.08;47.51;101909.34;5361487;23;20048;-83
2022/04/20 11:20:25;;;;;;;2.87;0.73;;;;;;;16.93;45.87;102031.81;6001167;23;20023;31
2022/04/20 11:23:05;;;;;;;2.22;1.00;;;;;;;15.96;46.95;101858.41;4883739;29;20340;-81
2022/04/20 11:25:31;;;;;;;4.18;1.23;;;;;;;15.84;47.40;101845.69;4867313;29;20104;-79
2022/04/20 11:28:02;;;;;;;1.02;0.60;;;;;;;17.10;47.22;102011.28;4874070;29;20040;-80
2022/04/20 11:30:28;;;;;;;2.55;0.80;;;;;;;17.05;47.19;101970.28;4886672;29;20064;-79
2022/04/20 11:32:53;;;;;;;2.47;0.63;;;;;;;17.25;46.90;101989.25;4873037;29;20479;-79
2022/04/20 11:35:18;;;;;;;1.98;0.60;;;;;;;17.06;46.82;102002.72;4864084;29;20113;-79
2022/04/20 11:37:56;;;;;;;1.83;0.70;;;;;;;17.27;46.68;101993.44;4867898;29;20037;-81
2022/04/20 11:40:22;;;;;;;3.10;1.00;;;;;;;17.23;46.63;101992.22;4865780;29;20105;-82
2022/04/20 11:43:08;;;;;;;0.75;0.55;;;;;;;16.91;45.93;101966.78;4865632;29;20532;-81
2022/04/20 11:45:34;;;;;;;1.35;0.70;;;;;;;17.47;45.73;101984.38;4867088;29;20026;-82
2022/04/20 11:48:01;;;;;;;5.97;0.93;;;;;;;17.61;45.61;101975.09;4867665;29;20049;-82
2022/04/20 11:50:26;;;;;;;2.17;0.80;;;;;;;17.58;46.03;101978.22;4882956;29;20036;-82
2022/04/20 11:52:59;;;;;;;2.33;0.68;;;;;;;17.24;46.06;101972.09;4869029;29;20037;-81
2022/04/20 11:55:24;;;;;;;1.20;0.60;;;;;;;17.61;46.02;101969.63;4867623;29;20205;-81
2022/04/20 11:57:49;;;;;;;2.10;0.90;;;;;;;17.81;45.80;101972.28;5206274;23;20048;-83
2022/04/20 12:00:20;;;;;;;1.77;0.77;;;;;;;17.76;45.96;101967.50;4923354;29;20033;-84
2022/04/20 12:02:46;;;;;;;1.55;0.60;;;;;;;17.67;45.09;101963.31;4931674;29;20040;-83
2022/04/20 12:05:12;;;;;;;1.92;0.70;;;;;;;17.84;44.46;101936.44;4911714;29;20016;-84
2022/04/20 12:10:15;;;;;;;4.60;0.60;;;;;;;17.60;43.11;101919.00;5470285;23;20011;-83
2022/04/20 12:12:42;;;;;;;1.25;0.60;;;;;;;18.01;43.59;101959.41;4922273;29;20036;-82
2022/04/20 12:15:08;;;;;;;1.23;0.70;;;;;;;17.84;42.43;101933.72;4908405;29;20021;-81
2022/04/20 12:17:34;;;;;;;1.02;0.60;;;;;;;17.83;42.69;101964.75;4925410;29;20080;-82
2022/04/20 12:19:59;;;;;;;2.15;0.50;;;;;;;17.40;43.33;101959.91;4922997;29;20017;-82
2022/04/20 12:22:25;;;;;;;1.50;0.68;;;;;;;17.75;43.58;101970.44;4922802;29;20056;-82
2022/04/20 12:25:23;;;;;;;1.52;0.60;;;;;;;17.99;42.03;101949.78;4922296;29;20087;-83
2022/04/20 12:27:55;;;;;;;3.03;0.63;;;;;;;17.78;42.88;101942.75;4908256;29;20023;-82
2022/04/20 12:30:38;;;;;;;3.60;0.70;;;;;;;17.51;42.84;101923.00;4920345;29;20041;-82
2022/04/20 12:33:08;;;;;;;0.85;0.70;;;;;;;17.63;43.08;101904.94;4917797;29;20028;-82
2022/04/20 12:35:33;;;;;;;1.27;0.50;;;;;;;17.96;43.17;101958.38;4914799;29;20460;-82
2022/04/20 12:37:59;;;;;;;2.33;0.70;;;;;;;17.17;43.11;101813.56;5176333;23;21490;-82
2022/04/20 12:40:26;;;;;;;0.90;0.50;;;;;;;16.95;42.37;101774.97;4900709;29;20077;-83
2022/04/20 12:42:58;;;;;;;4.45;0.63;;;;;;;18.02;42.66;101943.88;4896344;29;20029;-80